| Ora | Descriere | Temp | Se simte | Precipitatii | Umiditate | Vant |
|---|---|---|---|---|---|---|
| 00:00 | 12.9° | 11.9° | 0% | 63% | SSE 11.9 KM/H | |
| 01:00 | 12.4° | 11.5° | 0% | 65% | S 9.7 KM/H | |
| 02:00 | 11.9° | 11.5° | 0% | 67% | S 7.2 KM/H | |
| 03:00 | 11.7° | 11.5° | 0% | 69% | S 5.4 KM/H | |
| 04:00 | 11.5° | 11.7° | 0% | 70% | SSE 4 KM/H | |
| 05:00 | 11.2° | 11.2° | 0% | 71% | S 2.9 KM/H | |
| 06:00 | Senin | 11° | 11° | 0% | 71% | SSW 2.2 KM/H |
| 07:00 | Senin | 12° | 12° | 0% | 71% | SE 2.9 KM/H |
| 08:00 | Senin | 14° | 14.6° | 0% | 63% | SSE 4 KM/H |
| 09:00 | Senin | 15.9° | 15.9° | 0% | 57% | SSE 5.8 KM/H |
| 10:00 | Senin | 17.8° | 17.8° | 0% | 50% | SSE 7.9 KM/H |
| 11:00 | Senin | 19.6° | 19.6° | 0% | 43% | SSE 10.4 KM/H |
| 12:00 | Senin | 20.9° | 20.9° | 0% | 39% | SSE 11.9 KM/H |
| 13:00 | Senin | 21.7° | 21.7° | 0% | 39% | S 11.9 KM/H |
| 14:00 | Senin | 22.3° | 24° | 0% | 39% | S 11.2 KM/H |
| 15:00 | Senin | 22.8° | 24.2° | 0% | 39% | S 10.4 KM/H |
| 16:00 | Senin | 23° | 24.3° | 0% | 39% | S 9.7 KM/H |
| 17:00 | Senin | 23° | 24.3° | 0% | 40% | S 9.4 KM/H |
| 18:00 | Senin | 22.7° | 24.3° | 0% | 42% | SSE 10.1 KM/H |
| 19:00 | Senin | 21.5° | 21.5° | 0% | 50% | SSE 10.1 KM/H |
| 20:00 | Senin | 19° | 19° | 0% | 58% | SSE 10.8 KM/H |
| 21:00 | Senin | 17.2° | 17.3° | 0% | 63% | SE 12.2 KM/H |
| 22:00 | Senin | 15.8° | 15.8° | 0% | 70% | SSE 13.3 KM/H |
| 23:00 | Senin | 14.6° | 13.8° | 0% | 75% | SSE 13 KM/H |